sensor_id;sensor_type;location;lat;lon;timestamp;pressure;altitude;pressure_sealevel;temperature;humidity
51876;BME280;34054;52.100;5.116;2024-02-21T00:00:08;101966.19;;;9.41;100.00
51876;BME280;34054;52.100;5.116;2024-02-21T00:00:42;101963.66;;;9.40;100.00
51876;BME280;34054;52.100;5.116;2024-02-21T00:01:16;101957.59;;;9.45;100.00
51876;BME280;34054;52.100;5.116;2024-02-21T00:01:48;101955.34;;;9.41;100.00
51876;BME280;34054;52.100;5.116;2024-02-21T00:02:20;101944.78;;;9.33;100.00
51876;BME280;34054;52.100;5.116;2024-02-21T00:02:52;101948.06;;;9.35;100.00
51876;BME280;34054;52.100;5.116;2024-02-21T00:03:24;101956.38;;;9.40;100.00
51876;BME280;34054;52.100;5.116;2024-02-21T00:03:55;101945.59;;;9.34;100.00
51876;BME280;34054;52.100;5.116;2024-02-21T00:04:28;101956.44;;;9.34;100.00
51876;BME280;34054;52.100;5.116;2024-02-21T00:04:59;101904.88;;;9.15;100.00
51876;BME280;34054;52.100;5.116;2024-02-21T00:05:31;101953.66;;;9.40;100.00
51876;BME280;34054;52.100;5.116;2024-02-21T00:06:03;101877.94;;;8.95;100.00
51876;BME280;34054;52.100;5.116;2024-02-21T00:06:36;101961.69;;;9.29;100.00
51876;BME280;34054;52.100;5.116;2024-02-21T00:07:07;101948.69;;;9.37;100.00
51876;BME280;34054;52.100;5.116;2024-02-21T00:07:39;101936.25;;;9.30;100.00
51876;BME280;34054;52.100;5.116;2024-02-21T00:08:10;101949.69;;;9.43;100.00
51876;BME280;34054;52.100;5.116;2024-02-21T00:08:43;101950.78;;;9.35;100.00
51876;BME280;34054;52.100;5.116;2024-02-21T00:09:15;101935.94;;;9.13;100.00
51876;BME280;34054;52.100;5.116;2024-02-21T00:09:46;101947.25;;;9.35;100.00
51876;BME280;34054;52.100;5.116;2024-02-21T00:10:18;101926.44;;;9.29;100.00
51876;BME280;34054;52.100;5.116;2024-02-21T00:10:51;101948.63;;;9.44;100.00
51876;BME280;34054;52.100;5.116;2024-02-21T00:11:22;101955.75;;;9.38;100.00
51876;BME280;34054;52.100;5.116;2024-02-21T00:11:54;101947.09;;;9.30;100.00
51876;BME280;34054;52.100;5.116;2024-02-21T00:12:25;101936.19;;;9.36;100.00
51876;BME280;34054;52.100;5.116;2024-02-21T00:12:59;101939.06;;;9.41;100.00
51876;BME280;34054;52.100;5.116;2024-02-21T00:13:31;101932.84;;;9.34;100.00
51876;BME280;34054;52.100;5.116;2024-02-21T00:14:02;101935.34;;;9.36;100.00
51876;BME280;34054;52.100;5.116;2024-02-21T00:14:34;101927.97;;;9.18;100.00
51876;BME280;34054;52.100;5.116;2024-02-21T00:15:07;101931.03;;;9.28;100.00
51876;BME280;34054;52.100;5.116;2024-02-21T00:15:39;101933.06;;;9.33;100.00
51876;BME280;34054;52.100;5.116;2024-02-21T00:16:11;101940.41;;;9.32;100.00
51876;BME280;34054;52.100;5.116;2024-02-21T00:16:42;101884.75;;;9.04;100.00
51876;BME280;34054;52.100;5.116;2024-02-21T00:17:15;101937.19;;;9.42;100.00
51876;BME280;34054;52.100;5.116;2024-02-21T00:17:46;101942.97;;;9.46;100.00
51876;BME280;34054;52.100;5.116;2024-02-21T00:18:19;101936.22;;;9.55;100.00
51876;BME280;34054;52.100;5.116;2024-02-21T00:18:51;101938.69;;;9.56;100.00
51876;BME280;34054;52.100;5.116;2024-02-21T00:19:23;101933.13;;;9.51;100.00
51876;BME280;34054;52.100;5.116;2024-02-21T00:19:55;101928.53;;;9.52;100.00
51876;BME280;34054;52.100;5.116;2024-02-21T00:20:26;101934.59;;;9.29;100.00
51876;BME280;34054;52.100;5.116;2024-02-21T00:20:58;101928.31;;;9.28;100.00
51876;BME280;34054;52.100;5.116;2024-02-21T00:21:30;101928.22;;;9.41;100.00
51876;BME280;34054;52.100;5.116;2024-02-21T00:22:02;101930.09;;;9.41;100.00
51876;BME280;34054;52.100;5.116;2024-02-21T00:22:35;101938.22;;;9.41;100.00
51876;BME280;34054;52.100;5.116;2024-02-21T00:23:06;101931.69;;;9.49;100.00
51876;BME280;34054;52.100;5.116;2024-02-21T00:23:38;101934.03;;;9.45;100.00
51876;BME280;34054;52.100;5.116;2024-02-21T00:24:10;101925.94;;;9.38;100.00
51876;BME280;34054;52.100;5.116;2024-02-21T00:24:42;101932.38;;;9.44;100.00
51876;BME280;34054;52.100;5.116;2024-02-21T00:25:13;101938.28;;;9.34;100.00
51876;BME280;34054;52.100;5.116;2024-02-21T00:25:45;101934.03;;;9.45;100.00
51876;BME280;34054;52.100;5.116;2024-02-21T00:26:18;101920.91;;;9.42;100.00
51876;BME280;34054;52.100;5.116;2024-02-21T00:26:49;101929.41;;;9.46;100.00
51876;BME280;34054;52.100;5.116;2024-02-21T00:27:21;101916.09;;;9.44;100.00
51876;BME280;34054;52.100;5.116;2024-02-21T00:27:52;101924.22;;;9.44;100.00
51876;BME280;34054;52.100;5.116;2024-02-21T00:28:26;101924.03;;;9.39;100.00
51876;BME280;34054;52.100;5.116;2024-02-21T00:28:58;101917.81;;;9.38;100.00
51876;BME280;34054;52.100;5.116;2024-02-21T00:29:29;101928.00;;;9.43;100.00
51876;BME280;34054;52.100;5.116;2024-02-21T00:30:03;101908.00;;;9.37;100.00
51876;BME280;34054;52.100;5.116;2024-02-21T00:30:35;101922.78;;;9.41;100.00
51876;BME280;34054;52.100;5.116;2024-02-21T00:31:09;101911.84;;;9.30;100.00
51876;BME280;34054;52.100;5.116;2024-02-21T00:31:41;101916.00;;;9.32;100.00
51876;BME280;34054;52.100;5.116;2024-02-21T00:32:13;101922.41;;;9.38;100.00
51876;BME280;34054;52.100;5.116;2024-02-21T00:32:45;101919.91;;;9.36;100.00
51876;BME280;34054;52.100;5.116;2024-02-21T00:33:17;101916.75;;;9.39;100.00
51876;BME280;34054;52.100;5.116;2024-02-21T00:33:48;101915.03;;;9.45;100.00
51876;BME280;34054;52.100;5.116;2024-02-21T00:34:20;101924.31;;;9.31;100.00
51876;BME280;34054;52.100;5.116;2024-02-21T00:34:52;101920.56;;;9.32;100.00
51876;BME280;34054;52.100;5.116;2024-02-21T00:35:24;101911.66;;;9.24;100.00
51876;BME280;34054;52.100;5.116;2024-02-21T00:35:56;101912.44;;;9.32;100.00
51876;BME280;34054;52.100;5.116;2024-02-21T00:36:27;101919.53;;;9.33;100.00
51876;BME280;34054;52.100;5.116;2024-02-21T00:37:00;101909.53;;;9.33;100.00
51876;BME280;34054;52.100;5.116;2024-02-21T00:37:31;101921.94;;;9.41;100.00
51876;BME280;34054;52.100;5.116;2024-02-21T00:38:03;101909.28;;;9.35;100.00
51876;BME280;34054;52.100;5.116;2024-02-21T00:38:34;101919.53;;;9.33;100.00
51876;BME280;34054;52.100;5.116;2024-02-21T00:39:07;101909.34;;;9.28;100.00
51876;BME280;34054;52.100;5.116;2024-02-21T00:39:39;101861.28;;;8.91;100.00
51876;BME280;34054;52.100;5.116;2024-02-21T00:40:11;101925.28;;;9.18;100.00
51876;BME280;34054;52.100;5.116;2024-02-21T00:40:42;101915.09;;;9.13;100.00
51876;BME280;34054;52.100;5.116;2024-02-21T00:41:15;101901.88;;;8.98;100.00
51876;BME280;34054;52.100;5.116;2024-02-21T00:41:46;101920.69;;;9.18;100.00
51876;BME280;34054;52.100;5.116;2024-02-21T00:42:18;101930.09;;;9.16;100.00
51876;BME280;34054;52.100;5.116;2024-02-21T00:42:50;101931.25;;;9.26;100.00
51876;BME280;34054;52.100;5.116;2024-02-21T00:43:22;101926.88;;;9.25;100.00
51876;BME280;34054;52.100;5.116;2024-02-21T00:43:56;101925.06;;;9.19;100.00
51876;BME280;34054;52.100;5.116;2024-02-21T00:44:28;101918.63;;;9.39;100.00
51876;BME280;34054;52.100;5.116;2024-02-21T00:45:00;101910.78;;;9.31;100.00
51876;BME280;34054;52.100;5.116;2024-02-21T00:45:32;101884.31;;;9.26;100.00
51876;BME280;34054;52.100;5.116;2024-02-21T00:46:05;101926.81;;;9.57;100.00
51876;BME280;34054;52.100;5.116;2024-02-21T00:46:37;101930.88;;;9.67;100.00
51876;BME280;34054;52.100;5.116;2024-02-21T00:47:10;101935.69;;;9.65;100.00
51876;BME280;34054;52.100;5.116;2024-02-21T00:47:42;101913.09;;;9.52;100.00
51876;BME280;34054;52.100;5.116;2024-02-21T00:48:13;101926.81;;;9.57;100.00
51876;BME280;34054;52.100;5.116;2024-02-21T00:48:45;101939.22;;;9.72;100.00
51876;BME280;34054;52.100;5.116;2024-02-21T00:49:17;101901.50;;;9.45;100.00
51876;BME280;34054;52.100;5.116;2024-02-21T00:49:49;101934.88;;;9.64;100.00
51876;BME280;34054;52.100;5.116;2024-02-21T00:50:21;101918.22;;;9.61;100.00
51876;BME280;34054;52.100;5.116;2024-02-21T00:50:52;101929.91;;;9.61;100.00
51876;BME280;34054;52.100;5.116;2024-02-21T00:51:25;101865.34;;;9.26;100.00
51876;BME280;34054;52.100;5.116;2024-02-21T00:51:56;101932.78;;;9.66;100.00
51876;BME280;34054;52.100;5.116;2024-02-21T00:52:28;101943.63;;;9.66;100.00
51876;BME280;34054;52.100;5.116;2024-02-21T00:52:59;101928.41;;;9.65;100.00
51876;BME280;34054;52.100;5.116;2024-02-21T00:53:32;101934.84;;;9.71;100.00
51876;BME280;34054;52.100;5.116;2024-02-21T00:54:03;101939.25;;;9.65;100.00
51876;BME280;34054;52.100;5.116;2024-02-21T00:54:35;101937.19;;;9.42;100.00
51876;BME280;34054;52.100;5.116;2024-02-21T00:55:08;101931.75;;;9.42;100.00
51876;BME280;34054;52.100;5.116;2024-02-21T00:55:41;101934.88;;;9.39;100.00
51876;BME280;34054;52.100;5.116;2024-02-21T00:56:14;101937.50;;;9.52;100.00
51876;BME280;34054;52.100;5.116;2024-02-21T00:56:45;101925.13;;;9.56;100.00
51876;BME280;34054;52.100;5.116;2024-02-21T00:57:17;101932.41;;;9.63;100.00
51876;BME280;34054;52.100;5.116;2024-02-21T00:57:50;101931.69;;;9.49;100.00
51876;BME280;34054;52.100;5.116;2024-02-21T00:58:21;101933.75;;;9.53;100.00
51876;BME280;34054;52.100;5.116;2024-02-21T00:58:53;101924.47;;;9.61;100.00
51876;BME280;34054;52.100;5.116;2024-02-21T00:59:27;101933.31;;;9.75;100.00
51876;BME280;34054;52.100;5.116;2024-02-21T00:59:58;101936.97;;;9.62;100.00
51876;BME280;34054;52.100;5.116;2024-02-21T01:00:30;101929.81;;;9.49;100.00
51876;BME280;34054;52.100;5.116;2024-02-21T01:01:01;101917.00;;;9.38;100.00
51876;BME280;34054;52.100;5.116;2024-02-21T01:01:34;101926.66;;;9.52;100.00
51876;BME280;34054;52.100;5.116;2024-02-21T01:02:06;101935.97;;;9.38;100.00
51876;BME280;34054;52.100;5.116;2024-02-21T01:02:37;101940.72;;;9.42;100.00
51876;BME280;34054;52.100;5.116;2024-02-21T01:03:12;101934.88;;;9.39;100.00
51876;BME280;34054;52.100;5.116;2024-02-21T01:03:43;101936.22;;;9.55;100.00
51876;BME280;34054;52.100;5.116;2024-02-21T01:04:15;101933.13;;;9.51;100.00
51876;BME280;34054;52.100;5.116;2024-02-21T01:04:47;101941.88;;;9.53;100.00
51876;BME280;34054;52.100;5.116;2024-02-21T01:05:18;101941.78;;;9.60;100.00
51876;BME280;34054;52.100;5.116;2024-02-21T01:05:51;101922.78;;;9.41;100.00
51876;BME280;34054;52.100;5.116;2024-02-21T01:06:23;101932.78;;;9.41;100.00
51876;BME280;34054;52.100;5.116;2024-02-21T01:06:55;101922.22;;;9.33;100.00
51876;BME280;34054;52.100;5.116;2024-02-21T01:07:26;101936.47;;;9.53;100.00
51876;BME280;34054;52.100;5.116;2024-02-21T01:07:59;101935.41;;;9.54;100.00
51876;BME280;34054;52.100;5.116;2024-02-21T01:08:30;101938.41;;;9.46;100.00
51876;BME280;34054;52.100;5.116;2024-02-21T01:09:02;101941.88;;;9.53;100.00
51876;BME280;34054;52.100;5.116;2024-02-21T01:09:35;101937.59;;;9.64;100.00
51876;BME280;34054;52.100;5.116;2024-02-21T01:10:07;101943.25;;;9.63;100.00
51876;BME280;34054;52.100;5.116;2024-02-21T01:10:39;101926.19;;;9.55;100.00
51876;BME280;34054;52.100;5.116;2024-02-21T01:11:11;101942.03;;;9.58;100.00
51876;BME280;34054;52.100;5.116;2024-02-21T01:11:43;101928.59;;;9.45;100.00
51876;BME280;34054;52.100;5.116;2024-02-21T01:12:15;101949.13;;;9.59;100.00
51876;BME280;34054;52.100;5.116;2024-02-21T01:12:46;101934.56;;;9.54;100.00
51876;BME280;34054;52.100;5.116;2024-02-21T01:13:18;101925.59;;;9.53;100.00
51876;BME280;34054;52.100;5.116;2024-02-21T01:13:50;101938.06;;;9.36;100.00
51876;BME280;34054;52.100;5.116;2024-02-21T01:14:22;101934.47;;;9.42;100.00
51876;BME280;34054;52.100;5.116;2024-02-21T01:14:55;101919.47;;;9.39;100.00
51876;BME280;34054;52.100;5.116;2024-02-21T01:15:27;101933.25;;;9.38;100.00
51876;BME280;34054;52.100;5.116;2024-02-21T01:15:59;101929.81;;;9.49;100.00
51876;BME280;34054;52.100;5.116;2024-02-21T01:16:31;101933.50;;;9.55;100.00
51876;BME280;34054;52.100;5.116;2024-02-21T01:17:02;101914.16;;;9.51;100.00
51876;BME280;34054;52.100;5.116;2024-02-21T01:17:34;101925.72;;;9.40;100.00
51876;BME280;34054;52.100;5.116;2024-02-21T01:18:07;101927.19;;;9.42;100.00
51876;BME280;34054;52.100;5.116;2024-02-21T01:18:39;101923.56;;;9.49;100.00
51876;BME280;34054;52.100;5.116;2024-02-21T01:19:11;101923.88;;;9.59;100.00
51876;BME280;34054;52.100;5.116;2024-02-21T01:19:42;101926.59;;;9.59;100.00
51876;BME280;34054;52.100;5.116;2024-02-21T01:20:15;101919.47;;;9.39;100.00
51876;BME280;34054;52.100;5.116;2024-02-21T01:20:46;101923.94;;;9.52;100.00
51876;BME280;34054;52.100;5.116;2024-02-21T01:21:18;101917.81;;;9.38;100.00
51876;BME280;34054;52.100;5.116;2024-02-21T01:21:50;101893.69;;;9.30;100.00
51876;BME280;34054;52.100;5.116;2024-02-21T01:22:22;101919.72;;;9.56;100.00
51876;BME280;34054;52.100;5.116;2024-02-21T01:22:54;101916.47;;;9.48;100.00
51876;BME280;34054;52.100;5.116;2024-02-21T01:23:25;101911.88;;;9.48;100.00
51876;BME280;34054;52.100;5.116;2024-02-21T01:23:57;101911.59;;;9.56;100.00
51876;BME280;34054;52.100;5.116;2024-02-21T01:24:29;101908.00;;;9.63;100.00
51876;BME280;34054;52.100;5.116;2024-02-21T01:25:01;101903.69;;;9.73;100.00
51876;BME280;34054;52.100;5.116;2024-02-21T01:25:33;101908.28;;;9.73;100.00
51876;BME280;34054;52.100;5.116;2024-02-21T01:26:04;101904.66;;;9.61;100.00
51876;BME280;34054;52.100;5.116;2024-02-21T01:26:39;101899.31;;;9.54;100.00
51876;BME280;34054;52.100;5.116;2024-02-21T01:27:10;101908.09;;;9.49;100.00
51876;BME280;34054;52.100;5.116;2024-02-21T01:27:42;101901.63;;;9.50;100.00
51876;BME280;34054;52.100;5.116;2024-02-21T01:28:14;101891.66;;;9.25;100.00
51876;BME280;34054;52.100;5.116;2024-02-21T01:28:47;101897.41;;;9.36;100.00
51876;BME280;34054;52.100;5.116;2024-02-21T01:29:18;101900.59;;;9.51;100.00
51876;BME280;34054;52.100;5.116;2024-02-21T01:29:50;101886.41;;;9.49;100.00
51876;BME280;34054;52.100;5.116;2024-02-21T01:30:23;101844.84;;;9.11;100.00
51876;BME280;34054;52.100;5.116;2024-02-21T01:30:55;101895.41;;;9.50;100.00
51876;BME280;34054;52.100;5.116;2024-02-21T01:31:27;101890.03;;;9.43;100.00
51876;BME280;34054;52.100;5.116;2024-02-21T01:31:59;101897.50;;;9.48;100.00
51876;BME280;34054;52.100;5.116;2024-02-21T01:32:30;101895.69;;;9.41;100.00
51876;BME280;34054;52.100;5.116;2024-02-21T01:33:03;101891.69;;;9.44;100.00
51876;BME280;34054;52.100;5.116;2024-02-21T01:33:35;101890.94;;;9.37;100.00
51876;BME280;34054;52.100;5.116;2024-02-21T01:34:06;101881.50;;;9.39;100.00
51876;BME280;34054;52.100;5.116;2024-02-21T01:34:38;101897.94;;;9.45;100.00
51876;BME280;34054;52.100;5.116;2024-02-21T01:35:10;101895.16;;;9.51;100.00
51876;BME280;34054;52.100;5.116;2024-02-21T01:35:42;101893.25;;;9.52;100.00
51876;BME280;34054;52.100;5.116;2024-02-21T01:36:14;101888.94;;;9.51;100.00
51876;BME280;34054;52.100;5.116;2024-02-21T01:36:46;101891.22;;;9.47;100.00
51876;BME280;34054;52.100;5.116;2024-02-21T01:37:18;101888.69;;;9.52;100.00
51876;BME280;34054;52.100;5.116;2024-02-21T01:37:49;101889.44;;;9.59;100.00
51876;BME280;34054;52.100;5.116;2024-02-21T01:38:22;101894.94;;;9.53;100.00
51876;BME280;34054;52.100;5.116;2024-02-21T01:38:55;101888.03;;;9.57;100.00
51876;BME280;34054;52.100;5.116;2024-02-21T01:39:27;101895.63;;;9.67;100.00
51876;BME280;34054;52.100;5.116;2024-02-21T01:39:58;101889.75;;;9.70;100.00
51876;BME280;34054;52.100;5.116;2024-02-21T01:40:30;101881.97;;;9.55;100.00
51876;BME280;34054;52.100;5.116;2024-02-21T01:41:03;101887.75;;;9.40;100.00
51876;BME280;34054;52.100;5.116;2024-02-21T01:41:35;101889.50;;;9.53;100.00
51876;BME280;34054;52.100;5.116;2024-02-21T01:42:06;101872.16;;;9.35;100.00
51876;BME280;34054;52.100;5.116;2024-02-21T01:42:38;101878.47;;;9.54;100.00
51876;BME280;34054;52.100;5.116;2024-02-21T01:43:19;101883.41;;;9.57;100.00
51876;BME280;34054;52.100;5.116;2024-02-21T01:43:51;101863.53;;;9.45;100.00
51876;BME280;34054;52.100;5.116;2024-02-21T01:44:23;101867.28;;;9.44;100.00
51876;BME280;34054;52.100;5.116;2024-02-21T01:44:54;101854.03;;;9.36;100.00
51876;BME280;34054;52.100;5.116;2024-02-21T01:45:28;101876.84;;;9.47;100.00
51876;BME280;34054;52.100;5.116;2024-02-21T01:46:00;101868.78;;;9.40;100.00
51876;BME280;34054;52.100;5.116;2024-02-21T01:46:31;101877.22;;;9.50;100.00
51876;BME280;34054;52.100;5.116;2024-02-21T01:47:03;101874.75;;;9.49;100.00
51876;BME280;34054;52.100;5.116;2024-02-21T01:47:37;101877.47;;;9.49;100.00
51876;BME280;34054;52.100;5.116;2024-02-21T01:48:09;101873.94;;;9.67;100.00
51876;BME280;34054;52.100;5.116;2024-02-21T01:48:41;101855.00;;;9.60;100.00
51876;BME280;34054;52.100;5.116;2024-02-21T01:49:13;101882.44;;;9.70;100.00
51876;BME280;34054;52.100;5.116;2024-02-21T01:49:45;101882.97;;;9.61;100.00
51876;BME280;34054;52.100;5.116;2024-02-21T01:50:17;101836.91;;;9.35;100.00
51876;BME280;34054;52.100;5.116;2024-02-21T01:50:49;101882.00;;;9.73;100.00
51876;BME280;34054;52.100;5.116;2024-02-21T01:51:22;101880.28;;;9.79;100.00
51876;BME280;34054;52.100;5.116;2024-02-21T01:51:55;101872.13;;;9.79;100.00
51876;BME280;34054;52.100;5.116;2024-02-21T01:52:28;101873.03;;;9.92;100.00
51876;BME280;34054;52.100;5.116;2024-02-21T01:53:00;101876.28;;;9.82;100.00
51876;BME280;34054;52.100;5.116;2024-02-21T01:53:34;101815.53;;;9.46;100.00
51876;BME280;34054;52.100;5.116;2024-02-21T01:54:11;101874.91;;;9.72;100.00
51876;BME280;34054;52.100;5.116;2024-02-21T01:54:46;101876.50;;;9.80;100.00
51876;BME280;34054;52.100;5.116;2024-02-21T01:55:20;101885.06;;;9.58;100.00
51876;BME280;34054;52.100;5.116;2024-02-21T01:55:52;101883.22;;;9.59;100.00
51876;BME280;34054;52.100;5.116;2024-02-21T01:56:27;101872.06;;;9.67;100.00
51876;BME280;34054;52.100;5.116;2024-02-21T01:56:59;101878.63;;;9.78;100.00
51876;BME280;34054;52.100;5.116;2024-02-21T01:57:31;101881.47;;;9.83;100.00
51876;BME280;34054;52.100;5.116;2024-02-21T01:58:03;101870.97;;;9.68;100.00
51876;BME280;34054;52.100;5.116;2024-02-21T01:58:37;101874.25;;;9.77;100.00
51876;BME280;34054;52.100;5.116;2024-02-21T01:59:12;101880.72;;;9.76;100.00
51876;BME280;34054;52.100;5.116;2024-02-21T01:59:46;101875.72;;;9.73;100.00
51876;BME280;34054;52.100;5.116;2024-02-21T02:00:20;101885.31;;;9.76;100.00
51876;BME280;34054;52.100;5.116;2024-02-21T02:00:54;101865.84;;;9.60;100.00
51876;BME280;34054;52.100;5.116;2024-02-21T02:01:29;101882.78;;;9.55;100.00
51876;BME280;34054;52.100;5.116;2024-02-21T02:02:02;101880.31;;;9.54;100.00
51876;BME280;34054;52.100;5.116;2024-02-21T02:02:33;101876.94;;;9.58;100.00
51876;BME280;34054;52.100;5.116;2024-02-21T02:03:05;101881.63;;;9.70;100.00
51876;BME280;34054;52.100;5.116;2024-02-21T02:03:37;101874.09;;;9.72;100.00
51876;BME280;34054;52.100;5.116;2024-02-21T02:04:10;101881.56;;;9.77;100.00
51876;BME280;34054;52.100;5.116;2024-02-21T02:04:43;101867.47;;;9.86;100.00
51876;BME280;34054;52.100;5.116;2024-02-21T02:05:16;101866.84;;;9.84;100.00
51876;BME280;34054;52.100;5.116;2024-02-21T02:05:49;101805.72;;;9.26;100.00
51876;BME280;34054;52.100;5.116;2024-02-21T02:06:22;101864.97;;;9.66;100.00
51876;BME280;34054;52.100;5.116;2024-02-21T02:06:54;101870.03;;;9.63;100.00
51876;BME280;34054;52.100;5.116;2024-02-21T02:07:26;101869.25;;;9.74;100.00
51876;BME280;34054;52.100;5.116;2024-02-21T02:07:59;101870.25;;;9.80;100.00
51876;BME280;34054;52.100;5.116;2024-02-21T02:08:31;101864.56;;;9.81;100.00
51876;BME280;34054;52.100;5.116;2024-02-21T02:09:03;101788.25;;;9.22;100.00
51876;BME280;34054;52.100;5.116;2024-02-21T02:09:35;101867.91;;;9.65;100.00
51876;BME280;34054;52.100;5.116;2024-02-21T02:10:08;101866.69;;;9.61;100.00
51876;BME280;34054;52.100;5.116;2024-02-21T02:10:41;101855.00;;;9.60;100.00
51876;BME280;34054;52.100;5.116;2024-02-21T02:11:14;101867.75;;;9.59;100.00
51876;BME280;34054;52.100;5.116;2024-02-21T02:11:45;101859.56;;;9.66;100.00
51876;BME280;34054;52.100;5.116;2024-02-21T02:12:19;101858.03;;;9.70;100.00
51876;BME280;34054;52.100;5.116;2024-02-21T02:12:50;101860.69;;;9.77;100.00
51876;BME280;34054;52.100;5.116;2024-02-21T02:13:22;101855.41;;;9.64;100.00
51876;BME280;34054;52.100;5.116;2024-02-21T02:13:53;101856.22;;;9.64;100.00
51876;BME280;34054;52.100;5.116;2024-02-21T02:14:26;101860.13;;;9.68;100.00
51876;BME280;34054;52.100;5.116;2024-02-21T02:14:58;101851.84;;;9.45;100.00
51876;BME280;34054;52.100;5.116;2024-02-21T02:15:37;101853.06;;;9.49;100.00
51876;BME280;34054;52.100;5.116;2024-02-21T02:16:12;101840.94;;;9.51;100.00
51876;BME280;34054;52.100;5.116;2024-02-21T02:16:46;101839.13;;;9.45;100.00
51876;BME280;34054;52.100;5.116;2024-02-21T02:17:18;101852.06;;;9.43;100.00
51876;BME280;34054;52.100;5.116;2024-02-21T02:17:51;101850.25;;;9.37;100.00
51876;BME280;34054;52.100;5.116;2024-02-21T02:18:22;101845.41;;;9.39;100.00
51876;BME280;34054;52.100;5.116;2024-02-21T02:18:54;101853.25;;;9.47;100.00
51876;BME280;34054;52.100;5.116;2024-02-21T02:19:26;101851.25;;;9.42;100.00
51876;BME280;34054;52.100;5.116;2024-02-21T02:19:58;101846.03;;;9.41;100.00
51876;BME280;34054;52.100;5.116;2024-02-21T02:20:30;101843.88;;;9.50;100.00
51876;BME280;34054;52.100;5.116;2024-02-21T02:21:03;101844.69;;;9.50;100.00
51876;BME280;34054;52.100;5.116;2024-02-21T02:21:44;101842.59;;;9.52;100.00
51876;BME280;34054;52.100;5.116;2024-02-21T02:22:22;101845.13;;;9.47;100.00
51876;BME280;34054;52.100;5.116;2024-02-21T02:22:57;101831.00;;;9.45;100.00
51876;BME280;34054;52.100;5.116;2024-02-21T02:23:33;101844.25;;;9.53;100.00
51876;BME280;34054;52.100;5.116;2024-02-21T02:24:05;101831.13;;;9.50;100.00
51876;BME280;34054;52.100;5.116;2024-02-21T02:24:39;101822.53;;;9.35;100.00
51876;BME280;34054;52.100;5.116;2024-02-21T02:25:10;101834.50;;;9.46;100.00
51876;BME280;34054;52.100;5.116;2024-02-21T02:25:43;101838.22;;;9.51;100.00
51876;BME280;34054;52.100;5.116;2024-02-21T02:26:20;101834.88;;;9.49;100.00
51876;BME280;34054;52.100;5.116;2024-02-21T02:26:51;101822.69;;;9.40;100.00
51876;BME280;34054;52.100;5.116;2024-02-21T02:27:23;101814.78;;;9.38;100.00
51876;BME280;34054;52.100;5.116;2024-02-21T02:27:56;101835.28;;;9.53;100.00
51876;BME280;34054;52.100;5.116;2024-02-21T02:28:27;101833.84;;;9.50;100.00
51876;BME280;34054;52.100;5.116;2024-02-21T02:29:01;101830.84;;;9.58;100.00
51876;BME280;34054;52.100;5.116;2024-02-21T02:29:33;101825.28;;;9.53;100.00
51876;BME280;34054;52.100;5.116;2024-02-21T02:30:07;101840.50;;;9.54;100.00
51876;BME280;34054;52.100;5.116;2024-02-21T02:30:39;101838.22;;;9.51;100.00
51876;BME280;34054;52.100;5.116;2024-02-21T02:31:11;101835.50;;;9.51;100.00
51876;BME280;34054;52.100;5.116;2024-02-21T02:31:43;101834.81;;;9.37;100.00
51876;BME280;34054;52.100;5.116;2024-02-21T02:32:15;101831.06;;;9.38;100.00
51876;BME280;34054;52.100;5.116;2024-02-21T02:32:47;101835.94;;;9.48;100.00
51876;BME280;34054;52.100;5.116;2024-02-21T02:33:19;101830.38;;;9.43;100.00
51876;BME280;34054;52.100;5.116;2024-02-21T02:33:51;101831.44;;;9.42;100.00
51876;BME280;34054;52.100;5.116;2024-02-21T02:34:23;101837.97;;;9.34;100.00
51876;BME280;34054;52.100;5.116;2024-02-21T02:34:55;101841.91;;;9.38;100.00
51876;BME280;34054;52.100;5.116;2024-02-21T02:35:27;101819.44;;;9.31;100.00
51876;BME280;34054;52.100;5.116;2024-02-21T02:36:00;101825.63;;;9.38;100.00
51876;BME280;34054;52.100;5.116;2024-02-21T02:36:32;101822.31;;;9.36;100.00
51876;BME280;34054;52.100;5.116;2024-02-21T02:37:04;101836.84;;;9.42;100.00
51876;BME280;34054;52.100;5.116;2024-02-21T02:37:35;101836.78;;;9.49;100.00
51876;BME280;34054;52.100;5.116;2024-02-21T02:38:11;101845.75;;;9.49;100.00
51876;BME280;34054;52.100;5.116;2024-02-21T02:38:45;101836.19;;;9.47;100.00
51876;BME280;34054;52.100;5.116;2024-02-21T02:39:17;101834.97;;;9.42;100.00
51876;BME280;34054;52.100;5.116;2024-02-21T02:39:49;101842.72;;;9.39;100.00
51876;BME280;34054;52.100;5.116;2024-02-21T02:40:21;101842.41;;;9.29;100.00
51876;BME280;34054;52.100;5.116;2024-02-21T02:40:52;101834.72;;;9.25;100.00
51876;BME280;34054;52.100;5.116;2024-02-21T02:41:24;101843.38;;;9.34;100.00
51876;BME280;34054;52.100;5.116;2024-02-21T02:41:57;101834.06;;;9.30;100.00
51876;BME280;34054;52.100;5.116;2024-02-21T02:42:28;101838.53;;;9.18;100.00
51876;BME280;34054;52.100;5.116;2024-02-21T02:43:00;101815.94;;;9.05;100.00
51876;BME280;34054;52.100;5.116;2024-02-21T02:43:32;101837.28;;;9.20;100.00
51876;BME280;34054;52.100;5.116;2024-02-21T02:44:05;101835.78;;;9.24;100.00
51876;BME280;34054;52.100;5.116;2024-02-21T02:44:36;101831.09;;;9.32;100.00
51876;BME280;34054;52.100;5.116;2024-02-21T02:45:09;101826.31;;;9.34;100.00
51876;BME280;34054;52.100;5.116;2024-02-21T02:45:41;101804.91;;;9.25;100.00
51876;BME280;34054;52.100;5.116;2024-02-21T02:46:14;101828.84;;;9.47;100.00
51876;BME280;34054;52.100;5.116;2024-02-21T02:46:45;101827.81;;;9.48;100.00
51876;BME280;34054;52.100;5.116;2024-02-21T02:47:17;101825.47;;;9.52;100.00
51876;BME280;34054;52.100;5.116;2024-02-21T02:47:49;101815.59;;;9.39;100.00
51876;BME280;34054;52.100;5.116;2024-02-21T02:48:21;101825.19;;;9.41;100.00
51876;BME280;34054;52.100;5.116;2024-02-21T02:48:53;101823.53;;;9.40;100.00